sensor_id;sensor_type;location;lat;lon;timestamp;temperature;humidity
42885;DHT22;28534;48.100;11.584;2024-03-02T00:00:52;21.30;56.00
42885;DHT22;28534;48.100;11.584;2024-03-02T00:01:54;21.30;56.00
42885;DHT22;28534;48.100;11.584;2024-03-02T00:02:55;21.30;56.00
42885;DHT22;28534;48.100;11.584;2024-03-02T00:03:56;21.30;56.10
42885;DHT22;28534;48.100;11.584;2024-03-02T00:04:57;21.30;56.10
42885;DHT22;28534;48.100;11.584;2024-03-02T00:05:58;21.30;56.10
42885;DHT22;28534;48.100;11.584;2024-03-02T00:06:59;21.30;56.10
42885;DHT22;28534;48.100;11.584;2024-03-02T00:08:01;21.30;56.10
42885;DHT22;28534;48.100;11.584;2024-03-02T00:09:01;21.30;56.10
42885;DHT22;28534;48.100;11.584;2024-03-02T00:10:04;21.30;56.10
42885;DHT22;28534;48.100;11.584;2024-03-02T00:11:08;21.30;56.20
42885;DHT22;28534;48.100;11.584;2024-03-02T00:12:10;21.30;56.20
42885;DHT22;28534;48.100;11.584;2024-03-02T00:13:13;21.30;56.20
42885;DHT22;28534;48.100;11.584;2024-03-02T00:14:13;21.30;56.20
42885;DHT22;28534;48.100;11.584;2024-03-02T00:15:23;21.30;56.20
42885;DHT22;28534;48.100;11.584;2024-03-02T00:16:29;21.30;56.40
42885;DHT22;28534;48.100;11.584;2024-03-02T00:17:31;21.30;56.30
42885;DHT22;28534;48.100;11.584;2024-03-02T00:18:32;21.30;56.30
42885;DHT22;28534;48.100;11.584;2024-03-02T00:19:35;21.30;56.70
42885;DHT22;28534;48.100;11.584;2024-03-02T00:20:39;21.20;56.20
42885;DHT22;28534;48.100;11.584;2024-03-02T00:21:41;21.30;56.20
42885;DHT22;28534;48.100;11.584;2024-03-02T00:22:42;21.30;56.20
42885;DHT22;28534;48.100;11.584;2024-03-02T00:23:43;21.30;56.20
42885;DHT22;28534;48.100;11.584;2024-03-02T00:24:44;21.30;56.20
42885;DHT22;28534;48.100;11.584;2024-03-02T00:25:47;21.30;56.20
42885;DHT22;28534;48.100;11.584;2024-03-02T00:26:47;21.30;56.20
42885;DHT22;28534;48.100;11.584;2024-03-02T00:27:49;21.30;56.20
42885;DHT22;28534;48.100;11.584;2024-03-02T00:28:54;21.30;56.20
42885;DHT22;28534;48.100;11.584;2024-03-02T00:29:57;21.30;56.20
42885;DHT22;28534;48.100;11.584;2024-03-02T00:30:59;21.30;56.20
42885;DHT22;28534;48.100;11.584;2024-03-02T00:32:00;21.30;56.20
42885;DHT22;28534;48.100;11.584;2024-03-02T00:33:02;21.30;56.20
42885;DHT22;28534;48.100;11.584;2024-03-02T00:34:07;21.30;56.30
42885;DHT22;28534;48.100;11.584;2024-03-02T00:35:11;21.30;56.40
42885;DHT22;28534;48.100;11.584;2024-03-02T00:36:13;21.30;56.30
42885;DHT22;28534;48.100;11.584;2024-03-02T00:37:15;21.30;56.40
42885;DHT22;28534;48.100;11.584;2024-03-02T00:38:16;21.30;56.40
42885;DHT22;28534;48.100;11.584;2024-03-02T00:39:17;21.30;56.40
42885;DHT22;28534;48.100;11.584;2024-03-02T00:40:18;21.30;56.40
42885;DHT22;28534;48.100;11.584;2024-03-02T00:41:21;21.30;56.30
42885;DHT22;28534;48.100;11.584;2024-03-02T00:42:23;21.30;56.30
42885;DHT22;28534;48.100;11.584;2024-03-02T00:44:54;21.30;56.30
42885;DHT22;28534;48.100;11.584;2024-03-02T00:45:54;21.30;56.40
42885;DHT22;28534;48.100;11.584;2024-03-02T00:46:56;21.30;56.40
42885;DHT22;28534;48.100;11.584;2024-03-02T00:48:00;21.30;56.30
42885;DHT22;28534;48.100;11.584;2024-03-02T00:49:00;21.30;56.20
42885;DHT22;28534;48.100;11.584;2024-03-02T00:50:02;21.30;56.20
42885;DHT22;28534;48.100;11.584;2024-03-02T00:51:04;21.30;56.20
42885;DHT22;28534;48.100;11.584;2024-03-02T00:52:04;21.30;56.30
42885;DHT22;28534;48.100;11.584;2024-03-02T00:53:08;21.30;56.30
42885;DHT22;28534;48.100;11.584;2024-03-02T00:54:10;21.30;56.20
42885;DHT22;28534;48.100;11.584;2024-03-02T00:55:12;21.30;56.20
42885;DHT22;28534;48.100;11.584;2024-03-02T00:56:12;21.30;56.20
42885;DHT22;28534;48.100;11.584;2024-03-02T00:57:13;21.30;56.20
42885;DHT22;28534;48.100;11.584;2024-03-02T00:58:15;21.30;56.30
42885;DHT22;28534;48.100;11.584;2024-03-02T00:59:16;21.30;56.30
42885;DHT22;28534;48.100;11.584;2024-03-02T01:00:17;21.30;56.30
42885;DHT22;28534;48.100;11.584;2024-03-02T01:01:18;21.30;56.40
42885;DHT22;28534;48.100;11.584;2024-03-02T01:02:22;21.30;56.40
42885;DHT22;28534;48.100;11.584;2024-03-02T01:03:22;21.30;56.40
42885;DHT22;28534;48.100;11.584;2024-03-02T01:04:24;21.30;56.50
42885;DHT22;28534;48.100;11.584;2024-03-02T01:05:25;21.30;56.50
42885;DHT22;28534;48.100;11.584;2024-03-02T01:06:26;21.30;56.50
42885;DHT22;28534;48.100;11.584;2024-03-02T01:07:28;21.30;56.40
42885;DHT22;28534;48.100;11.584;2024-03-02T01:08:29;21.30;56.40
42885;DHT22;28534;48.100;11.584;2024-03-02T01:09:30;21.30;56.40
42885;DHT22;28534;48.100;11.584;2024-03-02T01:10:31;21.30;56.30
42885;DHT22;28534;48.100;11.584;2024-03-02T01:11:32;21.30;56.30
42885;DHT22;28534;48.100;11.584;2024-03-02T01:12:34;21.30;56.30
42885;DHT22;28534;48.100;11.584;2024-03-02T01:13:35;21.30;56.30
42885;DHT22;28534;48.100;11.584;2024-03-02T01:14:36;21.30;56.40
42885;DHT22;28534;48.100;11.584;2024-03-02T01:15:37;21.30;56.30
42885;DHT22;28534;48.100;11.584;2024-03-02T01:16:38;21.30;56.30
42885;DHT22;28534;48.100;11.584;2024-03-02T01:17:41;21.30;56.30
42885;DHT22;28534;48.100;11.584;2024-03-02T01:18:41;21.30;56.30
42885;DHT22;28534;48.100;11.584;2024-03-02T01:19:43;21.30;56.30
42885;DHT22;28534;48.100;11.584;2024-03-02T01:20:44;21.30;56.30
42885;DHT22;28534;48.100;11.584;2024-03-02T01:21:45;21.30;56.30
42885;DHT22;28534;48.100;11.584;2024-03-02T01:22:46;21.30;56.30
42885;DHT22;28534;48.100;11.584;2024-03-02T01:23:47;21.30;56.30
42885;DHT22;28534;48.100;11.584;2024-03-02T01:24:49;21.40;56.30
42885;DHT22;28534;48.100;11.584;2024-03-02T01:25:50;21.30;56.40
42885;DHT22;28534;48.100;11.584;2024-03-02T01:26:52;21.30;56.30
42885;DHT22;28534;48.100;11.584;2024-03-02T01:27:52;21.30;56.30
42885;DHT22;28534;48.100;11.584;2024-03-02T01:28:54;21.40;56.20
42885;DHT22;28534;48.100;11.584;2024-03-02T01:29:55;21.40;56.30
42885;DHT22;28534;48.100;11.584;2024-03-02T01:30:56;21.30;56.30
42885;DHT22;28534;48.100;11.584;2024-03-02T01:31:57;21.40;56.30
42885;DHT22;28534;48.100;11.584;2024-03-02T01:33:00;21.30;56.30
42885;DHT22;28534;48.100;11.584;2024-03-02T01:34:02;21.30;56.40
42885;DHT22;28534;48.100;11.584;2024-03-02T01:35:04;21.30;56.40
42885;DHT22;28534;48.100;11.584;2024-03-02T01:36:05;21.30;56.40
42885;DHT22;28534;48.100;11.584;2024-03-02T01:37:08;21.30;56.50
42885;DHT22;28534;48.100;11.584;2024-03-02T01:38:10;21.30;56.50
42885;DHT22;28534;48.100;11.584;2024-03-02T01:39:10;21.30;57.10
42885;DHT22;28534;48.100;11.584;2024-03-02T01:40:12;21.30;56.40
42885;DHT22;28534;48.100;11.584;2024-03-02T01:41:13;21.30;56.30
42885;DHT22;28534;48.100;11.584;2024-03-02T01:42:14;21.40;56.30
42885;DHT22;28534;48.100;11.584;2024-03-02T01:43:15;21.40;56.30
42885;DHT22;28534;48.100;11.584;2024-03-02T01:44:16;21.40;56.30
42885;DHT22;28534;48.100;11.584;2024-03-02T01:45:18;21.40;56.30
42885;DHT22;28534;48.100;11.584;2024-03-02T01:46:18;21.40;56.30
42885;DHT22;28534;48.100;11.584;2024-03-02T01:47:20;21.40;56.20
42885;DHT22;28534;48.100;11.584;2024-03-02T01:48:22;21.40;56.30
42885;DHT22;28534;48.100;11.584;2024-03-02T01:49:24;21.30;56.20
42885;DHT22;28534;48.100;11.584;2024-03-02T01:50:25;21.30;56.30
42885;DHT22;28534;48.100;11.584;2024-03-02T01:51:25;21.30;57.00
42885;DHT22;28534;48.100;11.584;2024-03-02T01:52:27;21.30;56.50
42885;DHT22;28534;48.100;11.584;2024-03-02T01:53:28;21.30;56.50
42885;DHT22;28534;48.100;11.584;2024-03-02T01:54:30;21.30;56.50
42885;DHT22;28534;48.100;11.584;2024-03-02T01:55:30;21.30;56.50
42885;DHT22;28534;48.100;11.584;2024-03-02T01:56:33;21.30;56.50
42885;DHT22;28534;48.100;11.584;2024-03-02T01:57:34;21.20;56.40
42885;DHT22;28534;48.100;11.584;2024-03-02T01:58:35;21.30;56.40
42885;DHT22;28534;48.100;11.584;2024-03-02T01:59:36;21.30;56.40
42885;DHT22;28534;48.100;11.584;2024-03-02T02:00:38;21.30;56.50
42885;DHT22;28534;48.100;11.584;2024-03-02T02:01:38;21.30;56.50
42885;DHT22;28534;48.100;11.584;2024-03-02T02:02:40;21.30;56.40
42885;DHT22;28534;48.100;11.584;2024-03-02T02:03:42;21.40;56.50
42885;DHT22;28534;48.100;11.584;2024-03-02T02:04:45;21.40;56.50
42885;DHT22;28534;48.100;11.584;2024-03-02T02:05:45;21.30;56.50
42885;DHT22;28534;48.100;11.584;2024-03-02T02:06:48;21.30;56.50
42885;DHT22;28534;48.100;11.584;2024-03-02T02:07:48;21.30;56.60
42885;DHT22;28534;48.100;11.584;2024-03-02T02:08:49;21.30;56.70
42885;DHT22;28534;48.100;11.584;2024-03-02T02:09:51;21.30;56.60
42885;DHT22;28534;48.100;11.584;2024-03-02T02:10:51;21.30;56.60
42885;DHT22;28534;48.100;11.584;2024-03-02T02:11:53;21.30;56.60
42885;DHT22;28534;48.100;11.584;2024-03-02T02:12:54;21.30;56.50
42885;DHT22;28534;48.100;11.584;2024-03-02T02:13:56;21.30;56.50
42885;DHT22;28534;48.100;11.584;2024-03-02T02:14:56;21.30;56.50
42885;DHT22;28534;48.100;11.584;2024-03-02T02:16:03;21.30;56.60
42885;DHT22;28534;48.100;11.584;2024-03-02T02:17:05;21.30;56.60
42885;DHT22;28534;48.100;11.584;2024-03-02T02:18:06;21.30;56.50
42885;DHT22;28534;48.100;11.584;2024-03-02T02:19:09;21.30;57.10
42885;DHT22;28534;48.100;11.584;2024-03-02T02:20:10;21.30;56.50
42885;DHT22;28534;48.100;11.584;2024-03-02T02:21:12;21.30;56.50
42885;DHT22;28534;48.100;11.584;2024-03-02T02:22:14;21.30;56.50
42885;DHT22;28534;48.100;11.584;2024-03-02T02:23:15;21.30;56.50
42885;DHT22;28534;48.100;11.584;2024-03-02T02:24:16;21.30;56.50
42885;DHT22;28534;48.100;11.584;2024-03-02T02:25:17;21.30;56.50
42885;DHT22;28534;48.100;11.584;2024-03-02T02:26:18;21.30;56.50
42885;DHT22;28534;48.100;11.584;2024-03-02T02:27:19;21.30;56.50
42885;DHT22;28534;48.100;11.584;2024-03-02T02:28:20;21.30;56.40
42885;DHT22;28534;48.100;11.584;2024-03-02T02:29:22;21.30;56.50
42885;DHT22;28534;48.100;11.584;2024-03-02T02:30:23;21.30;56.50
42885;DHT22;28534;48.100;11.584;2024-03-02T02:31:24;21.60;56.70
42885;DHT22;28534;48.100;11.584;2024-03-02T02:32:25;21.30;56.60
42885;DHT22;28534;48.100;11.584;2024-03-02T02:33:26;21.30;56.60
42885;DHT22;28534;48.100;11.584;2024-03-02T02:34:27;21.30;56.60
42885;DHT22;28534;48.100;11.584;2024-03-02T02:35:28;21.40;56.70
42885;DHT22;28534;48.100;11.584;2024-03-02T02:36:30;21.30;56.50
42885;DHT22;28534;48.100;11.584;2024-03-02T02:37:32;21.30;56.50
42885;DHT22;28534;48.100;11.584;2024-03-02T02:38:35;21.30;57.10
42885;DHT22;28534;48.100;11.584;2024-03-02T02:39:37;21.30;56.60
42885;DHT22;28534;48.100;11.584;2024-03-02T02:40:38;21.30;56.60
42885;DHT22;28534;48.100;11.584;2024-03-02T02:41:39;21.30;56.60
42885;DHT22;28534;48.100;11.584;2024-03-02T02:42:40;21.30;56.60
42885;DHT22;28534;48.100;11.584;2024-03-02T02:43:41;21.30;56.60
42885;DHT22;28534;48.100;11.584;2024-03-02T02:44:43;21.30;56.60
42885;DHT22;28534;48.100;11.584;2024-03-02T02:45:44;21.30;56.60
42885;DHT22;28534;48.100;11.584;2024-03-02T02:46:46;21.30;56.60
42885;DHT22;28534;48.100;11.584;2024-03-02T02:47:46;21.30;56.50
42885;DHT22;28534;48.100;11.584;2024-03-02T02:48:48;21.40;56.50
42885;DHT22;28534;48.100;11.584;2024-03-02T02:49:48;21.40;56.50
42885;DHT22;28534;48.100;11.584;2024-03-02T02:50:49;21.30;56.50
42885;DHT22;28534;48.100;11.584;2024-03-02T02:51:51;21.40;56.50
42885;DHT22;28534;48.100;11.584;2024-03-02T02:52:53;21.30;56.50
42885;DHT22;28534;48.100;11.584;2024-03-02T02:53:55;21.30;56.60
42885;DHT22;28534;48.100;11.584;2024-03-02T02:54:56;21.30;56.70
42885;DHT22;28534;48.100;11.584;2024-03-02T02:55:56;21.30;56.70
42885;DHT22;28534;48.100;11.584;2024-03-02T02:56:58;21.30;56.70
42885;DHT22;28534;48.100;11.584;2024-03-02T02:57:59;21.30;56.70
42885;DHT22;28534;48.100;11.584;2024-03-02T02:59:01;21.30;56.70
42885;DHT22;28534;48.100;11.584;2024-03-02T03:00:02;21.30;56.70
42885;DHT22;28534;48.100;11.584;2024-03-02T03:01:10;21.30;56.60
42885;DHT22;28534;48.100;11.584;2024-03-02T03:02:11;21.30;56.60
42885;DHT22;28534;48.100;11.584;2024-03-02T03:03:12;21.30;56.60
42885;DHT22;28534;48.100;11.584;2024-03-02T03:04:13;21.30;56.60
42885;DHT22;28534;48.100;11.584;2024-03-02T03:05:15;21.30;56.60
42885;DHT22;28534;48.100;11.584;2024-03-02T03:06:15;21.30;56.60
42885;DHT22;28534;48.100;11.584;2024-03-02T03:07:16;21.30;56.60
42885;DHT22;28534;48.100;11.584;2024-03-02T03:08:19;21.30;56.70
42885;DHT22;28534;48.100;11.584;2024-03-02T03:09:19;21.30;56.70
42885;DHT22;28534;48.100;11.584;2024-03-02T03:10:21;21.30;56.60
42885;DHT22;28534;48.100;11.584;2024-03-02T03:11:23;21.30;56.60
42885;DHT22;28534;48.100;11.584;2024-03-02T03:12:26;21.30;56.60
42885;DHT22;28534;48.100;11.584;2024-03-02T03:13:27;21.30;56.60
42885;DHT22;28534;48.100;11.584;2024-03-02T03:14:28;21.30;56.70
42885;DHT22;28534;48.100;11.584;2024-03-02T03:15:29;21.30;56.70
42885;DHT22;28534;48.100;11.584;2024-03-02T03:16:31;21.30;56.70
42885;DHT22;28534;48.100;11.584;2024-03-02T03:17:31;21.30;56.70
42885;DHT22;28534;48.100;11.584;2024-03-02T03:18:33;21.30;56.80
42885;DHT22;28534;48.100;11.584;2024-03-02T03:19:33;21.20;56.70
42885;DHT22;28534;48.100;11.584;2024-03-02T03:20:36;21.30;56.80
42885;DHT22;28534;48.100;11.584;2024-03-02T03:21:36;21.30;56.80
42885;DHT22;28534;48.100;11.584;2024-03-02T03:22:38;21.30;56.70
42885;DHT22;28534;48.100;11.584;2024-03-02T03:23:40;21.30;56.80
42885;DHT22;28534;48.100;11.584;2024-03-02T03:24:42;21.30;56.70
42885;DHT22;28534;48.100;11.584;2024-03-02T03:25:42;21.30;56.80
42885;DHT22;28534;48.100;11.584;2024-03-02T03:26:43;21.30;56.70
42885;DHT22;28534;48.100;11.584;2024-03-02T03:27:45;21.30;56.70
42885;DHT22;28534;48.100;11.584;2024-03-02T03:28:46;21.30;56.80
42885;DHT22;28534;48.100;11.584;2024-03-02T03:29:48;21.30;56.80
42885;DHT22;28534;48.100;11.584;2024-03-02T03:30:48;21.20;56.70
42885;DHT22;28534;48.100;11.584;2024-03-02T03:31:50;21.30;56.80
42885;DHT22;28534;48.100;11.584;2024-03-02T03:32:50;21.30;56.80
42885;DHT22;28534;48.100;11.584;2024-03-02T03:33:51;21.30;56.80
42885;DHT22;28534;48.100;11.584;2024-03-02T03:34:52;21.30;56.80
42885;DHT22;28534;48.100;11.584;2024-03-02T03:35:53;21.30;56.80
42885;DHT22;28534;48.100;11.584;2024-03-02T03:36:55;21.30;56.80
42885;DHT22;28534;48.100;11.584;2024-03-02T03:37:55;21.30;56.70
42885;DHT22;28534;48.100;11.584;2024-03-02T03:38:57;21.30;56.70
42885;DHT22;28534;48.100;11.584;2024-03-02T03:39:59;21.30;56.70
42885;DHT22;28534;48.100;11.584;2024-03-02T03:40:59;21.30;56.70
42885;DHT22;28534;48.100;11.584;2024-03-02T03:42:01;21.30;56.70
42885;DHT22;28534;48.100;11.584;2024-03-02T03:43:01;21.30;56.70
42885;DHT22;28534;48.100;11.584;2024-03-02T03:44:03;21.30;56.60
42885;DHT22;28534;48.100;11.584;2024-03-02T03:45:04;21.30;56.70
42885;DHT22;28534;48.100;11.584;2024-03-02T03:46:05;21.30;56.70
42885;DHT22;28534;48.100;11.584;2024-03-02T03:47:06;21.30;56.70
42885;DHT22;28534;48.100;11.584;2024-03-02T03:48:07;21.30;56.60
42885;DHT22;28534;48.100;11.584;2024-03-02T03:49:09;21.30;56.60
42885;DHT22;28534;48.100;11.584;2024-03-02T03:50:10;21.40;56.70
42885;DHT22;28534;48.100;11.584;2024-03-02T03:51:12;21.30;56.70
42885;DHT22;28534;48.100;11.584;2024-03-02T03:52:13;21.20;56.70
42885;DHT22;28534;48.100;11.584;2024-03-02T03:53:14;21.30;56.80
42885;DHT22;28534;48.100;11.584;2024-03-02T03:54:16;21.30;56.80
42885;DHT22;28534;48.100;11.584;2024-03-02T03:55:18;21.30;56.70
42885;DHT22;28534;48.100;11.584;2024-03-02T03:56:19;21.30;56.80
42885;DHT22;28534;48.100;11.584;2024-03-02T03:57:21;21.30;56.80
42885;DHT22;28534;48.100;11.584;2024-03-02T03:58:21;21.30;56.70
42885;DHT22;28534;48.100;11.584;2024-03-02T03:59:23;21.30;56.70
42885;DHT22;28534;48.100;11.584;2024-03-02T04:00:24;21.30;56.70
42885;DHT22;28534;48.100;11.584;2024-03-02T04:01:26;21.30;56.70
42885;DHT22;28534;48.100;11.584;2024-03-02T04:02:27;21.30;56.70
42885;DHT22;28534;48.100;11.584;2024-03-02T04:03:27;21.30;56.60
42885;DHT22;28534;48.100;11.584;2024-03-02T04:04:29;21.30;56.60
42885;DHT22;28534;48.100;11.584;2024-03-02T04:05:29;21.30;56.70
42885;DHT22;28534;48.100;11.584;2024-03-02T04:06:31;21.30;56.70
42885;DHT22;28534;48.100;11.584;2024-03-02T04:07:32;21.30;56.70
42885;DHT22;28534;48.100;11.584;2024-03-02T04:08:32;21.40;56.60
42885;DHT22;28534;48.100;11.584;2024-03-02T04:09:35;21.30;56.60
42885;DHT22;28534;48.100;11.584;2024-03-02T04:10:36;21.30;56.60
42885;DHT22;28534;48.100;11.584;2024-03-02T04:11:38;21.30;56.60
42885;DHT22;28534;48.100;11.584;2024-03-02T04:12:38;21.30;56.70
42885;DHT22;28534;48.100;11.584;2024-03-02T04:13:40;21.30;56.80
42885;DHT22;28534;48.100;11.584;2024-03-02T04:14:41;21.30;56.80
42885;DHT22;28534;48.100;11.584;2024-03-02T04:15:42;21.30;56.80
42885;DHT22;28534;48.100;11.584;2024-03-02T04:16:44;21.30;56.80
42885;DHT22;28534;48.100;11.584;2024-03-02T04:17:44;21.30;56.70
42885;DHT22;28534;48.100;11.584;2024-03-02T04:18:46;21.40;56.70
42885;DHT22;28534;48.100;11.584;2024-03-02T04:19:47;21.40;56.50
42885;DHT22;28534;48.100;11.584;2024-03-02T04:20:47;21.40;56.50
42885;DHT22;28534;48.100;11.584;2024-03-02T04:21:49;21.50;56.50
42885;DHT22;28534;48.100;11.584;2024-03-02T04:22:50;21.50;56.50
42885;DHT22;28534;48.100;11.584;2024-03-02T04:23:51;21.50;56.40
42885;DHT22;28534;48.100;11.584;2024-03-02T04:24:53;21.50;56.30
42885;DHT22;28534;48.100;11.584;2024-03-02T04:25:54;21.60;56.30
42885;DHT22;28534;48.100;11.584;2024-03-02T04:26:56;21.60;56.30
42885;DHT22;28534;48.100;11.584;2024-03-02T04:27:56;21.60;56.20
42885;DHT22;28534;48.100;11.584;2024-03-02T04:28:58;21.60;56.10
42885;DHT22;28534;48.100;11.584;2024-03-02T04:29:59;21.60;56.10
42885;DHT22;28534;48.100;11.584;2024-03-02T04:31:01;21.60;56.00
42885;DHT22;28534;48.100;11.584;2024-03-02T04:32:01;21.70;56.00
42885;DHT22;28534;48.100;11.584;2024-03-02T04:33:03;21.70;56.00
42885;DHT22;28534;48.100;11.584;2024-03-02T04:34:04;21.70;56.00
42885;DHT22;28534;48.100;11.584;2024-03-02T04:35:06;21.70;56.00
42885;DHT22;28534;48.100;11.584;2024-03-02T04:36:08;21.70;55.90
42885;DHT22;28534;48.100;11.584;2024-03-02T04:37:10;21.70;55.90
42885;DHT22;28534;48.100;11.584;2024-03-02T04:38:12;21.70;55.90
42885;DHT22;28534;48.100;11.584;2024-03-02T04:39:14;21.80;55.90
42885;DHT22;28534;48.100;11.584;2024-03-02T04:40:16;21.80;55.90
42885;DHT22;28534;48.100;11.584;2024-03-02T04:41:18;21.70;55.80
42885;DHT22;28534;48.100;11.584;2024-03-02T04:42:19;21.80;55.80
42885;DHT22;28534;48.100;11.584;2024-03-02T04:43:20;21.80;55.70
42885;DHT22;28534;48.100;11.584;2024-03-02T04:44:21;21.80;55.70
42885;DHT22;28534;48.100;11.584;2024-03-02T04:45:23;21.90;55.70
42885;DHT22;28534;48.100;11.584;2024-03-02T04:46:24;21.90;55.70
42885;DHT22;28534;48.100;11.584;2024-03-02T04:47:25;21.90;55.70
42885;DHT22;28534;48.100;11.584;2024-03-02T04:48:27;21.90;55.70
42885;DHT22;28534;48.100;11.584;2024-03-02T04:49:27;21.90;55.60
42885;DHT22;28534;48.100;11.584;2024-03-02T04:50:28;21.90;55.50
42885;DHT22;28534;48.100;11.584;2024-03-02T04:51:30;22.00;55.60
42885;DHT22;28534;48.100;11.584;2024-03-02T04:52:30;22.00;55.50
42885;DHT22;28534;48.100;11.584;2024-03-02T04:53:32;22.00;55.40
42885;DHT22;28534;48.100;11.584;2024-03-02T04:54:32;22.00;55.40
42885;DHT22;28534;48.100;11.584;2024-03-02T04:55:55;22.00;55.30
42885;DHT22;28534;48.100;11.584;2024-03-02T04:57:20;22.10;55.20
42885;DHT22;28534;48.100;11.584;2024-03-02T04:58:21;22.10;55.10
42885;DHT22;28534;48.100;11.584;2024-03-02T04:59:22;22.10;55.00
42885;DHT22;28534;48.100;11.584;2024-03-02T05:00:23;22.30;55.00
42885;DHT22;28534;48.100;11.584;2024-03-02T05:01:24;22.20;54.90
42885;DHT22;28534;48.100;11.584;2024-03-02T05:02:25;22.30;54.90
42885;DHT22;28534;48.100;11.584;2024-03-02T05:03:26;22.40;54.80
42885;DHT22;28534;48.100;11.584;2024-03-02T05:04:27;22.40;54.70
42885;DHT22;28534;48.100;11.584;2024-03-02T05:05:28;22.40;54.60
42885;DHT22;28534;48.100;11.584;2024-03-02T05:06:29;22.50;54.60
42885;DHT22;28534;48.100;11.584;2024-03-02T05:07:31;22.40;54.60
42885;DHT22;28534;48.100;11.584;2024-03-02T05:08:32;22.50;54.60
42885;DHT22;28534;48.100;11.584;2024-03-02T05:09:33;22.50;54.50
42885;DHT22;28534;48.100;11.584;2024-03-02T05:10:34;22.50;54.60
42885;DHT22;28534;48.100;11.584;2024-03-02T05:11:38;22.60;55.10
42885;DHT22;28534;48.100;11.584;2024-03-02T05:13:12;22.60;54.50
42885;DHT22;28534;48.100;11.584;2024-03-02T05:14:13;22.50;54.60
42885;DHT22;28534;48.100;11.584;2024-03-02T05:15:14;22.50;54.60
42885;DHT22;28534;48.100;11.584;2024-03-02T05:16:14;22.50;54.70
42885;DHT22;28534;48.100;11.584;2024-03-02T05:17:16;22.50;54.80
42885;DHT22;28534;48.100;11.584;2024-03-02T05:18:17;22.50;54.80
42885;DHT22;28534;48.100;11.584;2024-03-02T05:19:18;22.60;54.80
42885;DHT22;28534;48.100;11.584;2024-03-02T05:20:19;22.60;54.80
42885;DHT22;28534;48.100;11.584;2024-03-02T05:21:20;22.60;54.90
42885;DHT22;28534;48.100;11.584;2024-03-02T05:22:21;22.60;54.90
42885;DHT22;28534;48.100;11.584;2024-03-02T05:23:22;22.60;54.90
42885;DHT22;28534;48.100;11.584;2024-03-02T05:24:24;22.60;54.90
42885;DHT22;28534;48.100;11.584;2024-03-02T05:25:27;22.60;54.80
42885;DHT22;28534;48.100;11.584;2024-03-02T05:26:29;22.70;55.40
42885;DHT22;28534;48.100;11.584;2024-03-02T05:27:31;22.70;54.80
42885;DHT22;28534;48.100;11.584;2024-03-02T05:28:33;22.70;54.80
42885;DHT22;28534;48.100;11.584;2024-03-02T05:29:33;22.70;54.90
42885;DHT22;28534;48.100;11.584;2024-03-02T05:30:35;22.60;54.90
42885;DHT22;28534;48.100;11.584;2024-03-02T05:31:36;22.60;54.90
42885;DHT22;28534;48.100;11.584;2024-03-02T05:32:36;22.60;55.00
42885;DHT22;28534;48.100;11.584;2024-03-02T05:33:38;22.70;54.90
42885;DHT22;28534;48.100;11.584;2024-03-02T05:34:38;22.80;54.90
42885;DHT22;28534;48.100;11.584;2024-03-02T05:35:40;22.80;54.90
42885;DHT22;28534;48.100;11.584;2024-03-02T05:36:41;22.70;54.90
42885;DHT22;28534;48.100;11.584;2024-03-02T05:37:42;22.80;54.90
42885;DHT22;28534;48.100;11.584;2024-03-02T05:38:43;22.80;54.80
42885;DHT22;28534;48.100;11.584;2024-03-02T05:39:44;22.80;54.80
42885;DHT22;28534;48.100;11.584;2024-03-02T05:40:45;22.80;54.80
42885;DHT22;28534;48.100;11.584;2024-03-02T05:41:46;22.80;54.80
42885;DHT22;28534;48.100;11.584;2024-03-02T05:42:48;22.80;54.80
42885;DHT22;28534;48.100;11.584;2024-03-02T05:43:50;22.90;54.80
42885;DHT22;28534;48.100;11.584;2024-03-02T05:44:51;22.90;54.70
42885;DHT22;28534;48.100;11.584;2024-03-02T05:45:53;23.00;54.70
42885;DHT22;28534;48.100;11.584;2024-03-02T05:46:54;23.00;54.70
42885;DHT22;28534;48.100;11.584;2024-03-02T05:47:55;23.00;54.70
42885;DHT22;28534;48.100;11.584;2024-03-02T05:48:56;23.00;54.70
42885;DHT22;28534;48.100;11.584;2024-03-02T05:49:57;23.00;54.60
42885;DHT22;28534;48.100;11.584;2024-03-02T05:50:58;23.10;54.80
42885;DHT22;28534;48.100;11.584;2024-03-02T05:52:00;23.00;54.70
42885;DHT22;28534;48.100;11.584;2024-03-02T05:53:00;23.00;54.90
42885;DHT22;28534;48.100;11.584;2024-03-02T05:54:02;23.00;54.80
42885;DHT22;28534;48.100;11.584;2024-03-02T05:55:03;23.00;54.80
42885;DHT22;28534;48.100;11.584;2024-03-02T05:56:05;23.00;54.80
42885;DHT22;28534;48.100;11.584;2024-03-02T05:57:05;22.90;54.80
42885;DHT22;28534;48.100;11.584;2024-03-02T05:58:28;23.00;54.90
42885;DHT22;28534;48.100;11.584;2024-03-02T05:59:38;22.90;55.00
42885;DHT22;28534;48.100;11.584;2024-03-02T06:00:39;22.60;54.90
42885;DHT22;28534;48.100;11.584;2024-03-02T06:01:40;22.90;55.00
42885;DHT22;28534;48.100;11.584;2024-03-02T06:02:43;23.00;55.10
42885;DHT22;28534;48.100;11.584;2024-03-02T06:03:43;23.00;55.10
42885;DHT22;28534;48.100;11.584;2024-03-02T06:04:44;23.00;55.00
42885;DHT22;28534;48.100;11.584;2024-03-02T06:05:45;23.00;55.00
42885;DHT22;28534;48.100;11.584;2024-03-02T06:06:49;23.00;55.00
42885;DHT22;28534;48.100;11.584;2024-03-02T06:07:51;22.90;54.90
42885;DHT22;28534;48.100;11.584;2024-03-02T06:08:51;23.00;55.10
42885;DHT22;28534;48.100;11.584;2024-03-02T06:09:53;23.00;55.10
42885;DHT22;28534;48.100;11.584;2024-03-02T06:10:53;23.00;55.10
42885;DHT22;28534;48.100;11.584;2024-03-02T06:11:56;23.00;55.00
42885;DHT22;28534;48.100;11.584;2024-03-02T06:12:57;23.00;55.10
42885;DHT22;28534;48.100;11.584;2024-03-02T06:14:00;23.00;55.20
42885;DHT22;28534;48.100;11.584;2024-03-02T06:15:02;23.10;55.10
42885;DHT22;28534;48.100;11.584;2024-03-02T06:16:04;23.10;55.20
42885;DHT22;28534;48.100;11.584;2024-03-02T06:17:06;23.10;55.20
42885;DHT22;28534;48.100;11.584;2024-03-02T06:18:06;23.10;55.20
42885;DHT22;28534;48.100;11.584;2024-03-02T06:19:08;23.10;55.20
42885;DHT22;28534;48.100;11.584;2024-03-02T06:20:09;23.20;55.10
42885;DHT22;28534;48.100;11.584;2024-03-02T06:21:11;23.20;54.90
42885;DHT22;28534;48.100;11.584;2024-03-02T06:22:12;23.20;54.90
42885;DHT22;28534;48.100;11.584;2024-03-02T06:23:13;23.20;55.00
42885;DHT22;28534;48.100;11.584;2024-03-02T06:24:14;23.20;55.20
42885;DHT22;28534;48.100;11.584;2024-03-02T06:25:15;23.20;55.10